LDSS weather

Sinj Glider Airport
Sinj, Split-Dalmatia County, Croatia

Public forecast

Using degrees Celsius for public forecast. Weather courtesy of forecast.io.

METAR (pilot weather report)

Closest report is Split Airport, 18.9 nm (35.0 km) WSW. Retrieved 2019/05/25 22:30 UTC (16 minutes ago):

LDSP 252230Z 35005KT CAVOK 16/13 Q1016 NOSIG

TAF (pilot weather forecast)

Closest forecast is Split Airport, 18.9 nm (35.0 km) WSW. Retrieved 2019/05/25 18:30 UTC (4 hours ago):

TAF LDSP 251725Z 2518/2618 31005KT CAVOK TX22/2612Z TN16/2603Z PROB40 TEMPO 2608/2611 10010KT BECMG 2611/2613 11012KT BECMG 2615/2617 12009KT